Geervliet — PCLI — position and weather

sailwx.info

Track history (hours):
 
Tides and Currents Weather Stations Pressure Air Temp Water Temp Dewpoint Dewpoint Depression Visibility Wind Speed Wind Dir Waves Ship Positions

Geervliet

Last reported at 2017-Jul-25 04:24 UTC. Time now 2017-Jul-25 04:40 UTC.
Position N 53°17' E 001°04'.

Length 86 m; draft 5.3 m.

Type: Cargo ship. MMSI: 246803000.

Date/timePositionNaut miles runAvg speedWind from/ knotsBaromVisibWave heightAir tempDewpointWater temp
2017-Jul-25 04:24N 53°17' E 001°04'3 8.8
2017-Jul-25 04:00N 53°14' E 001°08'510.4
2017-Jul-25 03:30N 53°10' E 001°13'611.5
2017-Jul-25 03:00N 53°06' E 001°20'612.1
2017-Jul-25 02:30N 53°02' E 001°28'612.3
2017-Jul-25 02:00N 52°58' E 001°35'612.3
2017-Jul-25 01:29N 52°53' E 001°42'611.6
2017-Jul-25 01:00N 52°48' E 001°47'511.0
2017-Jul-25 00:30N 52°44' E 001°52'510.0
2017-Jul-25 00:00N 52°39' E 001°55'5 9.1
2017-Jul-24 23:30N 52°35' E 001°54'4 8.7
2017-Jul-24 23:00N 52°30' E 001°53'4 8.2
2017-Jul-24 22:29N 52°26' E 001°52'4 7.6
2017-Jul-24 21:54N 52°22' E 001°51'10 7.6
2017-Jul-24 20:34N 52°12' E 001°50'0 7.7
2017-Jul-24 20:30N 52°11' E 001°50'4 7.7
2017-Jul-24 20:00N 52°07' E 001°49'4 7.2
2017-Jul-24 19:30N 52°04' E 001°49'4 7.7
2017-Jul-24 19:00N 51°60' E 001°49'4 8.8
2017-Jul-24 18:30N 51°56' E 001°48'5 9.3
2017-Jul-24 18:00N 51°51' E 001°48'5 9.1
2017-Jul-24 17:30N 51°46' E 001°49'5 9.4
2017-Jul-24 17:00N 51°42' E 001°49'5 9.9
2017-Jul-24 16:30N 51°37' E 001°48'510.2
2017-Jul-24 16:00N 51°32' E 001°47'3110.5
2017-Jul-24 13:00N 51°01' E 001°34'612.8
2017-Jul-24 12:30N 50°56' E 001°28'612.2
2017-Jul-24 12:00N 50°51' E 001°23'5110.7
2017-Jul-24 07:15N 50°23' E 000°16'311.1
2017-Jul-24 07:00N 50°23' E 000°12'510.6
2017-Jul-24 06:30N 50°21' E 000°03'510.4
2017-Jul-24 06:00N 50°20' W 000°04'6 9.4
2017-Jul-24 05:21N 50°19' W 000°14'3 8.7
2017-Jul-24 04:59N 50°18' W 000°18'29 7.4
2017-Jul-24 01:01N 50°09' W 001°02'0 7.4
2017-Jul-24 00:59N 50°09' W 001°03'5 7.9
2017-Jul-24 00:23N 50°08' W 001°10'3 8.7
2017-Jul-24 00:01N 50°07' W 001°15'5 9.3
2017-Jul-23 23:31N 50°05' W 001°22'510.1
2017-Jul-23 23:00N 50°03' W 001°29'611.1
2017-Jul-23 22:30N 50°02' W 001°37'612.0
2017-Jul-23 22:00N 50°00' W 001°46'612.6
2017-Jul-23 21:30N 49°59' W 001°56'2413.2
2017-Jul-23 19:39N 49°52' W 002°32'612.8
2017-Jul-23 19:13N 49°50' W 002°41'312.8
2017-Jul-23 19:00N 49°49' W 002°45'612.5
2017-Jul-23 18:30N 49°47' W 002°54'612.2
2017-Jul-23 18:00N 49°44' W 003°02'612.0
2017-Jul-23 17:30N 49°41' W 003°10'611.8
2017-Jul-23 17:00N 49°38' W 003°18'611.8
2017-Jul-23 16:30N 49°35' W 003°26'611.3
2017-Jul-23 16:00N 49°32' W 003°33'69 9.4
2017-Jul-23 08:43N 48°57' W 005°04'2 8.2
2017-Jul-23 08:29N 48°56' W 005°06'4 8.5
2017-Jul-23 08:00N 48°54' W 005°12'5 9.1
2017-Jul-23 07:30N 48°52' W 005°18'5 9.7
2017-Jul-23 07:00N 48°50' W 005°24'  
2017-Jul-20 11:33N 39°28' W 009°50'2 8.8
2017-Jul-20 11:21N 39°26' W 009°50'3 8.8
2017-Jul-20 11:01N 39°23' W 009°49'4 8.7
2017-Jul-20 10:30N 39°19' W 009°49'4 8.6
2017-Jul-20 10:00N 39°14' W 009°49'4 8.6
2017-Jul-20 09:30N 39°10' W 009°50'4 8.7
2017-Jul-20 09:00N 39°06' W 009°50'4 8.6
2017-Jul-20 08:30N 39°01' W 009°50'4 8.6
2017-Jul-20 08:00N 38°57' W 009°51'4 8.8
2017-Jul-20 07:30N 38°53' W 009°51'4 8.9
2017-Jul-20 07:00N 38°48' W 009°51'4 8.9
2017-Jul-20 06:30N 38°44' W 009°51'4 8.7
2017-Jul-20 06:00N 38°40' W 009°50'4 8.8
2017-Jul-20 05:30N 38°35' W 009°48'4 8.6
2017-Jul-20 05:00N 38°31' W 009°47'4 8.7
2017-Jul-20 04:30N 38°27' W 009°46'4 9.0
2017-Jul-20 04:00N 38°23' W 009°45'4 8.7
2017-Jul-20 03:30N 38°18' W 009°44'5 9.5
2017-Jul-20 03:00N 38°14' W 009°42'5 9.8
2017-Jul-20 02:30N 38°09' W 009°41'510.0
2017-Jul-20 02:00N 38°04' W 009°39'5 9.8
2017-Jul-20 01:30N 37°60' W 009°37'5 9.8
2017-Jul-20 01:00N 37°55' W 009°35'510.1
2017-Jul-20 00:30N 37°50' W 009°34'5 9.7
2017-Jul-19 23:59N 37°45' W 009°33'5 9.4
2017-Jul-19 23:29N 37°40' W 009°32'28 9.5
2017-Jul-19 20:31N 37°13' W 009°24'35 8.8
2017-Jul-19 16:31N 36°43' W 008°60'210.3
2017-Jul-19 16:20N 36°43' W 008°57'410.2
2017-Jul-19 15:58N 36°42' W 008°53'4 9.9
2017-Jul-19 15:30N 36°40' W 008°48'5 9.7
2017-Jul-19 14:58N 36°39' W 008°41'6 9.2
2017-Jul-19 14:20N 36°37' W 008°34'3 9.2
2017-Jul-19 14:00N 36°36' W 008°31'318 9.4
2017-Jul-18 04:09N 36°27' W 001°55'210.8
2017-Jul-18 03:58N 36°28' W 001°53'510.6
2017-Jul-18 03:29N 36°29' W 001°47'710.7
2017-Jul-18 02:50N 36°30' W 001°38'411.1
2017-Jul-18 02:30N 36°30' W 001°34'3611.1
2017-Jul-17 23:14N 36°36' W 000°49'210.9
2017-Jul-17 23:00N 36°37' W 000°46'510.9
2017-Jul-17 22:30N 36°38' W 000°39'510.9
2017-Jul-17 22:00N 36°39' W 000°33'610.7
2017-Jul-17 21:25N 36°40' W 000°25'510.7
2017-Jul-17 20:59N 36°41' W 000°19'610.7
2017-Jul-17 20:24N 36°42' W 000°11'410.6
2017-Jul-17 20:00N 36°42' W 000°06'510.7
2017-Jul-17 19:30N 36°43' E 000°00'510.7
2017-Jul-17 19:00N 36°44' E 000°07'510.8
2017-Jul-17 18:30N 36°45' E 000°14'911.0
2017-Jul-17 17:43N 36°46' E 000°24'310.9
2017-Jul-17 17:28N 36°47' E 000°27'510.9
2017-Jul-17 17:00N 36°48' E 000°34'610.7
2017-Jul-17 16:28N 36°49' E 000°41'2610.9
2017-Jul-17 14:03N 36°54' E 001°13'110.8
2017-Jul-17 14:00N 36°54' E 001°14'610.8
2017-Jul-17 13:29N 36°55' E 001°21'511.1
2017-Jul-17 12:59N 36°56' E 001°27'511.1
2017-Jul-17 12:30N 36°57' E 001°34'1311.6
2017-Jul-17 11:24N 36°59' E 001°50'511.6
2017-Jul-17 10:58N 36°60' E 001°56'3411.3
2017-Jul-17 07:55N 37°06' E 002°38'410.8
2017-Jul-17 07:30N 37°07' E 002°44'510.7
2017-Jul-17 07:00N 37°08' E 002°50'510.7
2017-Jul-17 06:30N 37°09' E 002°57'610.2
2017-Jul-17 05:55N 37°10' E 003°04'296 9.2
2017-Jul-15 21:45N 37°41' E 009°15'2 6.9
2017-Jul-15 21:27N 37°41' E 009°18'8 7.0
2017-Jul-15 20:15N 37°40' E 009°28'2 6.7
2017-Jul-15 20:00N 37°40' E 009°31'99 7.5
2017-Jul-15 06:53N 37°21' E 011°33'  
Track history (hours):
 
Tides and Currents Weather Stations Pressure Air Temp Water Temp Dewpoint Dewpoint Depression Visibility Wind Speed Wind Dir Waves Ship Positions

Geervliet

Last reported at 2017-Jul-25 04:24 UTC. Time now 2017-Jul-25 04:40 UTC.
Position N 53°17' E 001°04'.

Length 86 m; draft 5.3 m.

Type: Cargo ship. MMSI: 246803000.

Date/timePositionNaut miles runAvg speedWind from/ knotsBaromVisibWave heightAir tempDewpointWater temp
2017-Jul-25 04:24N 53°17' E 001°04'3 8.8
2017-Jul-25 04:00N 53°14' E 001°08'510.4
2017-Jul-25 03:30N 53°10' E 001°13'611.5
2017-Jul-25 03:00N 53°06' E 001°20'612.1
2017-Jul-25 02:30N 53°02' E 001°28'612.3
2017-Jul-25 02:00N 52°58' E 001°35'612.3
2017-Jul-25 01:29N 52°53' E 001°42'611.6
2017-Jul-25 01:00N 52°48' E 001°47'511.0
2017-Jul-25 00:30N 52°44' E 001°52'510.0
2017-Jul-25 00:00N 52°39' E 001°55'5 9.1
2017-Jul-24 23:30N 52°35' E 001°54'4 8.7
2017-Jul-24 23:00N 52°30' E 001°53'4 8.2
2017-Jul-24 22:29N 52°26' E 001°52'4 7.6
2017-Jul-24 21:54N 52°22' E 001°51'10 7.6
2017-Jul-24 20:34N 52°12' E 001°50'0 7.7
2017-Jul-24 20:30N 52°11' E 001°50'4 7.7
2017-Jul-24 20:00N 52°07' E 001°49'4 7.2
2017-Jul-24 19:30N 52°04' E 001°49'4 7.7
2017-Jul-24 19:00N 51°60' E 001°49'4 8.8
2017-Jul-24 18:30N 51°56' E 001°48'5 9.3
2017-Jul-24 18:00N 51°51' E 001°48'5 9.1
2017-Jul-24 17:30N 51°46' E 001°49'5 9.4
2017-Jul-24 17:00N 51°42' E 001°49'5 9.9
2017-Jul-24 16:30N 51°37' E 001°48'510.2
2017-Jul-24 16:00N 51°32' E 001°47'3110.5
2017-Jul-24 13:00N 51°01' E 001°34'612.8
2017-Jul-24 12:30N 50°56' E 001°28'612.2
2017-Jul-24 12:00N 50°51' E 001°23'5110.7
2017-Jul-24 07:15N 50°23' E 000°16'311.1
2017-Jul-24 07:00N 50°23' E 000°12'510.6
2017-Jul-24 06:30N 50°21' E 000°03'510.4
2017-Jul-24 06:00N 50°20' W 000°04'6 9.4
2017-Jul-24 05:21N 50°19' W 000°14'3 8.7
2017-Jul-24 04:59N 50°18' W 000°18'29 7.4
2017-Jul-24 01:01N 50°09' W 001°02'0 7.4
2017-Jul-24 00:59N 50°09' W 001°03'5 7.9
2017-Jul-24 00:23N 50°08' W 001°10'3 8.7
2017-Jul-24 00:01N 50°07' W 001°15'5 9.3
2017-Jul-23 23:31N 50°05' W 001°22'510.1
2017-Jul-23 23:00N 50°03' W 001°29'611.1
2017-Jul-23 22:30N 50°02' W 001°37'612.0
2017-Jul-23 22:00N 50°00' W 001°46'612.6
2017-Jul-23 21:30N 49°59' W 001°56'2413.2
2017-Jul-23 19:39N 49°52' W 002°32'612.8
2017-Jul-23 19:13N 49°50' W 002°41'312.8
2017-Jul-23 19:00N 49°49' W 002°45'612.5
2017-Jul-23 18:30N 49°47' W 002°54'612.2
2017-Jul-23 18:00N 49°44' W 003°02'612.0
2017-Jul-23 17:30N 49°41' W 003°10'611.8
2017-Jul-23 17:00N 49°38' W 003°18'611.8
2017-Jul-23 16:30N 49°35' W 003°26'611.3
2017-Jul-23 16:00N 49°32' W 003°33'69 9.4
2017-Jul-23 08:43N 48°57' W 005°04'2 8.2
2017-Jul-23 08:29N 48°56' W 005°06'4 8.5
2017-Jul-23 08:00N 48°54' W 005°12'5 9.1
2017-Jul-23 07:30N 48°52' W 005°18'5 9.7
2017-Jul-23 07:00N 48°50' W 005°24'  
2017-Jul-20 11:33N 39°28' W 009°50'2 8.8
2017-Jul-20 11:21N 39°26' W 009°50'3 8.8
2017-Jul-20 11:01N 39°23' W 009°49'4 8.7
2017-Jul-20 10:30N 39°19' W 009°49'4 8.6
2017-Jul-20 10:00N 39°14' W 009°49'4 8.6
2017-Jul-20 09:30N 39°10' W 009°50'4 8.7
2017-Jul-20 09:00N 39°06' W 009°50'4 8.6
2017-Jul-20 08:30N 39°01' W 009°50'4 8.6
2017-Jul-20 08:00N 38°57' W 009°51'4 8.8
2017-Jul-20 07:30N 38°53' W 009°51'4 8.9
2017-Jul-20 07:00N 38°48' W 009°51'4 8.9
2017-Jul-20 06:30N 38°44' W 009°51'4 8.7
2017-Jul-20 06:00N 38°40' W 009°50'4 8.8
2017-Jul-20 05:30N 38°35' W 009°48'4 8.6
2017-Jul-20 05:00N 38°31' W 009°47'4 8.7
2017-Jul-20 04:30N 38°27' W 009°46'4 9.0
2017-Jul-20 04:00N 38°23' W 009°45'4 8.7
2017-Jul-20 03:30N 38°18' W 009°44'5 9.5
2017-Jul-20 03:00N 38°14' W 009°42'5 9.8
2017-Jul-20 02:30N 38°09' W 009°41'510.0
2017-Jul-20 02:00N 38°04' W 009°39'5 9.8
2017-Jul-20 01:30N 37°60' W 009°37'5 9.8
2017-Jul-20 01:00N 37°55' W 009°35'510.1
2017-Jul-20 00:30N 37°50' W 009°34'5 9.7
2017-Jul-19 23:59N 37°45' W 009°33'5 9.4
2017-Jul-19 23:29N 37°40' W 009°32'28 9.5
2017-Jul-19 20:31N 37°13' W 009°24'35 8.8
2017-Jul-19 16:31N 36°43' W 008°60'210.3
2017-Jul-19 16:20N 36°43' W 008°57'410.2
2017-Jul-19 15:58N 36°42' W 008°53'4 9.9
2017-Jul-19 15:30N 36°40' W 008°48'5 9.7
2017-Jul-19 14:58N 36°39' W 008°41'6 9.2
2017-Jul-19 14:20N 36°37' W 008°34'3 9.2
2017-Jul-19 14:00N 36°36' W 008°31'318 9.4
2017-Jul-18 04:09N 36°27' W 001°55'210.8
2017-Jul-18 03:58N 36°28' W 001°53'510.6
2017-Jul-18 03:29N 36°29' W 001°47'710.7
2017-Jul-18 02:50N 36°30' W 001°38'411.1
2017-Jul-18 02:30N 36°30' W 001°34'3611.1
2017-Jul-17 23:14N 36°36' W 000°49'210.9
2017-Jul-17 23:00N 36°37' W 000°46'510.9
2017-Jul-17 22:30N 36°38' W 000°39'510.9
2017-Jul-17 22:00N 36°39' W 000°33'610.7
2017-Jul-17 21:25N 36°40' W 000°25'510.7
2017-Jul-17 20:59N 36°41' W 000°19'610.7
2017-Jul-17 20:24N 36°42' W 000°11'410.6
2017-Jul-17 20:00N 36°42' W 000°06'510.7
2017-Jul-17 19:30N 36°43' E 000°00'510.7
2017-Jul-17 19:00N 36°44' E 000°07'510.8
2017-Jul-17 18:30N 36°45' E 000°14'911.0
2017-Jul-17 17:43N 36°46' E 000°24'310.9
2017-Jul-17 17:28N 36°47' E 000°27'510.9
2017-Jul-17 17:00N 36°48' E 000°34'610.7
2017-Jul-17 16:28N 36°49' E 000°41'2610.9
2017-Jul-17 14:03N 36°54' E 001°13'110.8
2017-Jul-17 14:00N 36°54' E 001°14'610.8
2017-Jul-17 13:29N 36°55' E 001°21'511.1
2017-Jul-17 12:59N 36°56' E 001°27'511.1
2017-Jul-17 12:30N 36°57' E 001°34'1311.6
2017-Jul-17 11:24N 36°59' E 001°50'511.6
2017-Jul-17 10:58N 36°60' E 001°56'3411.3
2017-Jul-17 07:55N 37°06' E 002°38'410.8
2017-Jul-17 07:30N 37°07' E 002°44'510.7
2017-Jul-17 07:00N 37°08' E 002°50'510.7
2017-Jul-17 06:30N 37°09' E 002°57'610.2
2017-Jul-17 05:55N 37°10' E 003°04'296 9.2
2017-Jul-15 21:45N 37°41' E 009°15'2 6.9
2017-Jul-15 21:27N 37°41' E 009°18'8 7.0
2017-Jul-15 20:15N 37°40' E 009°28'2 6.7
2017-Jul-15 20:00N 37°40' E 009°31'99 7.5
2017-Jul-15 06:53N 37°21' E 011°33'  

Dump ship's entire track history